sensor_id;sensor_type;location;lat;lon;timestamp;temperature;humidity
48551;DHT22;34397;51.176;6.738;2023-04-25T00:00:08;6.90;69.30
48551;DHT22;34397;51.176;6.738;2023-04-25T00:02:41;6.90;69.10
48551;DHT22;34397;51.176;6.738;2023-04-25T00:05:13;6.90;69.20
48551;DHT22;34397;51.176;6.738;2023-04-25T00:07:46;6.90;69.30
48551;DHT22;34397;51.176;6.738;2023-04-25T00:10:20;6.90;69.40
48551;DHT22;34397;51.176;6.738;2023-04-25T00:12:52;6.90;69.40
48551;DHT22;34397;51.176;6.738;2023-04-25T00:15:24;6.90;69.50
48551;DHT22;34397;51.176;6.738;2023-04-25T00:17:56;6.90;69.80
48551;DHT22;34397;51.176;6.738;2023-04-25T00:20:28;6.90;69.80
48551;DHT22;34397;51.176;6.738;2023-04-25T00:23:01;6.90;70.00
48551;DHT22;34397;51.176;6.738;2023-04-25T00:25:34;7.00;70.00
48551;DHT22;34397;51.176;6.738;2023-04-25T00:28:06;7.00;70.10
48551;DHT22;34397;51.176;6.738;2023-04-25T00:30:38;7.00;69.90
48551;DHT22;34397;51.176;6.738;2023-04-25T00:33:09;7.10;69.90
48551;DHT22;34397;51.176;6.738;2023-04-25T00:35:47;7.10;69.70
48551;DHT22;34397;51.176;6.738;2023-04-25T00:38:31;7.10;69.80
48551;DHT22;34397;51.176;6.738;2023-04-25T00:41:07;7.10;69.70
48551;DHT22;34397;51.176;6.738;2023-04-25T00:43:40;7.20;69.70
48551;DHT22;34397;51.176;6.738;2023-04-25T00:46:14;7.20;69.60
48551;DHT22;34397;51.176;6.738;2023-04-25T00:48:46;7.20;69.70
48551;DHT22;34397;51.176;6.738;2023-04-25T00:51:26;7.20;69.70
48551;DHT22;34397;51.176;6.738;2023-04-25T00:54:05;7.20;69.60
48551;DHT22;34397;51.176;6.738;2023-04-25T00:56:38;7.20;69.90
48551;DHT22;34397;51.176;6.738;2023-04-25T00:59:10;7.20;70.00
48551;DHT22;34397;51.176;6.738;2023-04-25T01:01:43;7.20;70.00
48551;DHT22;34397;51.176;6.738;2023-04-25T01:04:15;7.20;69.90
48551;DHT22;34397;51.176;6.738;2023-04-25T01:06:48;7.20;70.20
48551;DHT22;34397;51.176;6.738;2023-04-25T01:09:20;7.20;70.10
48551;DHT22;34397;51.176;6.738;2023-04-25T01:11:53;7.30;70.00
48551;DHT22;34397;51.176;6.738;2023-04-25T01:14:30;7.20;69.80
48551;DHT22;34397;51.176;6.738;2023-04-25T01:17:02;7.30;70.00
48551;DHT22;34397;51.176;6.738;2023-04-25T01:19:34;7.30;69.70
48551;DHT22;34397;51.176;6.738;2023-04-25T01:22:08;7.20;70.00
48551;DHT22;34397;51.176;6.738;2023-04-25T01:24:41;7.30;70.00
48551;DHT22;34397;51.176;6.738;2023-04-25T01:27:13;7.20;70.10
48551;DHT22;34397;51.176;6.738;2023-04-25T01:29:46;7.30;70.30
48551;DHT22;34397;51.176;6.738;2023-04-25T01:32:18;7.30;70.20
48551;DHT22;34397;51.176;6.738;2023-04-25T01:34:50;7.30;70.20
48551;DHT22;34397;51.176;6.738;2023-04-25T01:37:23;7.20;70.20
48551;DHT22;34397;51.176;6.738;2023-04-25T01:39:55;7.20;70.10
48551;DHT22;34397;51.176;6.738;2023-04-25T01:42:28;7.20;70.20
48551;DHT22;34397;51.176;6.738;2023-04-25T01:44:59;7.20;70.20
48551;DHT22;34397;51.176;6.738;2023-04-25T01:47:33;7.20;70.30
48551;DHT22;34397;51.176;6.738;2023-04-25T01:50:21;7.20;70.40
48551;DHT22;34397;51.176;6.738;2023-04-25T01:53:04;7.10;70.50
48551;DHT22;34397;51.176;6.738;2023-04-25T01:55:41;7.10;70.30
48551;DHT22;34397;51.176;6.738;2023-04-25T01:58:19;7.10;70.30
48551;DHT22;34397;51.176;6.738;2023-04-25T02:00:51;7.10;70.30
48551;DHT22;34397;51.176;6.738;2023-04-25T02:03:23;7.00;70.90
48551;DHT22;34397;51.176;6.738;2023-04-25T02:05:55;7.00;70.70
48551;DHT22;34397;51.176;6.738;2023-04-25T02:08:28;7.00;71.10
48551;DHT22;34397;51.176;6.738;2023-04-25T02:11:00;7.00;71.30
48551;DHT22;34397;51.176;6.738;2023-04-25T02:13:33;7.00;71.40
48551;DHT22;34397;51.176;6.738;2023-04-25T02:16:05;7.00;71.60
48551;DHT22;34397;51.176;6.738;2023-04-25T02:18:37;7.00;71.20
48551;DHT22;34397;51.176;6.738;2023-04-25T02:21:09;6.90;71.30
48551;DHT22;34397;51.176;6.738;2023-04-25T02:23:43;6.90;71.80
48551;DHT22;34397;51.176;6.738;2023-04-25T02:26:16;7.00;71.80
48551;DHT22;34397;51.176;6.738;2023-04-25T02:28:48;7.00;71.30
48551;DHT22;34397;51.176;6.738;2023-04-25T02:31:20;7.00;71.50
48551;DHT22;34397;51.176;6.738;2023-04-25T02:33:52;7.10;71.40
48551;DHT22;34397;51.176;6.738;2023-04-25T02:36:24;7.20;72.10
48551;DHT22;34397;51.176;6.738;2023-04-25T02:38:58;7.20;71.10
48551;DHT22;34397;51.176;6.738;2023-04-25T02:41:30;7.20;70.90
48551;DHT22;34397;51.176;6.738;2023-04-25T02:44:02;7.20;70.60
48551;DHT22;34397;51.176;6.738;2023-04-25T02:46:39;7.20;70.30
48551;DHT22;34397;51.176;6.738;2023-04-25T02:49:29;7.20;70.20
48551;DHT22;34397;51.176;6.738;2023-04-25T02:52:00;7.20;70.20
48551;DHT22;34397;51.176;6.738;2023-04-25T02:54:34;7.20;70.00
48551;DHT22;34397;51.176;6.738;2023-04-25T02:57:06;7.20;70.10
48551;DHT22;34397;51.176;6.738;2023-04-25T02:59:38;7.20;70.10
48551;DHT22;34397;51.176;6.738;2023-04-25T03:02:10;7.20;70.10
48551;DHT22;34397;51.176;6.738;2023-04-25T03:04:41;7.30;70.30
48551;DHT22;34397;51.176;6.738;2023-04-25T03:07:13;7.20;70.30
48551;DHT22;34397;51.176;6.738;2023-04-25T03:09:46;7.30;70.40
48551;DHT22;34397;51.176;6.738;2023-04-25T03:12:19;7.20;70.40
48551;DHT22;34397;51.176;6.738;2023-04-25T03:14:50;7.20;70.50
48551;DHT22;34397;51.176;6.738;2023-04-25T03:17:22;7.20;70.40
48551;DHT22;34397;51.176;6.738;2023-04-25T03:19:54;7.20;70.60
48551;DHT22;34397;51.176;6.738;2023-04-25T03:22:26;7.20;70.90
48551;DHT22;34397;51.176;6.738;2023-04-25T03:24:59;7.20;71.00
48551;DHT22;34397;51.176;6.738;2023-04-25T03:27:31;7.20;71.00
48551;DHT22;34397;51.176;6.738;2023-04-25T03:30:04;7.20;71.10
48551;DHT22;34397;51.176;6.738;2023-04-25T03:32:37;7.30;71.10
48551;DHT22;34397;51.176;6.738;2023-04-25T03:35:09;7.30;71.10
48551;DHT22;34397;51.176;6.738;2023-04-25T03:37:40;7.30;71.20
48551;DHT22;34397;51.176;6.738;2023-04-25T03:40:17;7.30;71.20
48551;DHT22;34397;51.176;6.738;2023-04-25T03:42:49;7.20;71.30
48551;DHT22;34397;51.176;6.738;2023-04-25T03:45:21;7.20;71.30
48551;DHT22;34397;51.176;6.738;2023-04-25T03:47:53;7.20;71.40
48551;DHT22;34397;51.176;6.738;2023-04-25T03:50:25;7.30;71.60
48551;DHT22;34397;51.176;6.738;2023-04-25T03:52:57;7.20;71.80
48551;DHT22;34397;51.176;6.738;2023-04-25T03:55:30;7.20;71.80
48551;DHT22;34397;51.176;6.738;2023-04-25T03:58:02;7.20;71.90
48551;DHT22;34397;51.176;6.738;2023-04-25T04:00:34;7.20;71.70
48551;DHT22;34397;51.176;6.738;2023-04-25T04:03:06;7.20;72.00
48551;DHT22;34397;51.176;6.738;2023-04-25T04:05:38;7.10;71.90
48551;DHT22;34397;51.176;6.738;2023-04-25T04:08:10;7.20;72.00
48551;DHT22;34397;51.176;6.738;2023-04-25T04:10:44;7.20;72.10
48551;DHT22;34397;51.176;6.738;2023-04-25T04:13:25;7.20;72.10
48551;DHT22;34397;51.176;6.738;2023-04-25T04:16:01;7.20;72.00
48551;DHT22;34397;51.176;6.738;2023-04-25T04:18:35;7.30;72.50
48551;DHT22;34397;51.176;6.738;2023-04-25T04:21:07;7.30;71.80
48551;DHT22;34397;51.176;6.738;2023-04-25T04:23:39;7.20;71.60
48551;DHT22;34397;51.176;6.738;2023-04-25T04:26:12;7.20;71.60
48551;DHT22;34397;51.176;6.738;2023-04-25T04:28:45;7.20;71.40
48551;DHT22;34397;51.176;6.738;2023-04-25T04:31:17;7.20;71.60
48551;DHT22;34397;51.176;6.738;2023-04-25T04:33:49;7.20;72.30
48551;DHT22;34397;51.176;6.738;2023-04-25T04:36:22;7.20;71.50
48551;DHT22;34397;51.176;6.738;2023-04-25T04:38:56;7.10;71.50
48551;DHT22;34397;51.176;6.738;2023-04-25T04:41:29;7.10;71.70
48551;DHT22;34397;51.176;6.738;2023-04-25T04:44:01;7.10;71.80
48551;DHT22;34397;51.176;6.738;2023-04-25T04:46:33;7.10;71.70
48551;DHT22;34397;51.176;6.738;2023-04-25T04:49:08;7.00;71.80
48551;DHT22;34397;51.176;6.738;2023-04-25T04:51:40;7.00;71.70
48551;DHT22;34397;51.176;6.738;2023-04-25T04:54:14;7.00;71.80
48551;DHT22;34397;51.176;6.738;2023-04-25T04:56:47;7.00;72.00
48551;DHT22;34397;51.176;6.738;2023-04-25T04:59:20;7.00;71.90
48551;DHT22;34397;51.176;6.738;2023-04-25T05:01:52;6.90;71.60
48551;DHT22;34397;51.176;6.738;2023-04-25T05:04:24;6.90;71.90
48551;DHT22;34397;51.176;6.738;2023-04-25T05:06:56;6.90;72.10
48551;DHT22;34397;51.176;6.738;2023-04-25T05:09:28;6.90;71.90
48551;DHT22;34397;51.176;6.738;2023-04-25T05:12:01;6.80;71.80
48551;DHT22;34397;51.176;6.738;2023-04-25T05:14:33;6.80;71.90
48551;DHT22;34397;51.176;6.738;2023-04-25T05:17:05;6.80;72.10
48551;DHT22;34397;51.176;6.738;2023-04-25T05:19:39;6.80;72.10
48551;DHT22;34397;51.176;6.738;2023-04-25T05:22:10;6.80;72.20
48551;DHT22;34397;51.176;6.738;2023-04-25T05:24:42;6.80;72.20
48551;DHT22;34397;51.176;6.738;2023-04-25T05:27:17;6.70;71.80
48551;DHT22;34397;51.176;6.738;2023-04-25T05:29:49;6.80;72.20
48551;DHT22;34397;51.176;6.738;2023-04-25T05:32:22;6.80;72.20
48551;DHT22;34397;51.176;6.738;2023-04-25T05:34:55;6.80;71.80
48551;DHT22;34397;51.176;6.738;2023-04-25T05:37:27;6.80;71.50
48551;DHT22;34397;51.176;6.738;2023-04-25T05:40:01;6.80;71.80
48551;DHT22;34397;51.176;6.738;2023-04-25T05:42:38;6.80;71.80
48551;DHT22;34397;51.176;6.738;2023-04-25T05:45:10;6.80;72.10
48551;DHT22;34397;51.176;6.738;2023-04-25T05:47:42;6.80;71.50
48551;DHT22;34397;51.176;6.738;2023-04-25T05:50:14;6.80;71.70
48551;DHT22;34397;51.176;6.738;2023-04-25T05:52:46;6.90;71.80
48551;DHT22;34397;51.176;6.738;2023-04-25T05:55:17;6.90;71.90
48551;DHT22;34397;51.176;6.738;2023-04-25T05:57:51;7.00;72.10
48551;DHT22;34397;51.176;6.738;2023-04-25T06:00:23;7.10;72.30
48551;DHT22;34397;51.176;6.738;2023-04-25T06:02:55;7.20;71.50
48551;DHT22;34397;51.176;6.738;2023-04-25T06:05:26;7.30;72.20
48551;DHT22;34397;51.176;6.738;2023-04-25T06:07:58;7.40;71.60
48551;DHT22;34397;51.176;6.738;2023-04-25T06:10:30;7.50;71.70
48551;DHT22;34397;51.176;6.738;2023-04-25T06:13:08;7.60;71.30
48551;DHT22;34397;51.176;6.738;2023-04-25T06:15:40;7.70;70.50
48551;DHT22;34397;51.176;6.738;2023-04-25T06:18:12;7.80;70.90
48551;DHT22;34397;51.176;6.738;2023-04-25T06:20:43;7.80;70.50
48551;DHT22;34397;51.176;6.738;2023-04-25T06:23:15;7.90;69.70
48551;DHT22;34397;51.176;6.738;2023-04-25T06:25:47;7.90;67.60
48551;DHT22;34397;51.176;6.738;2023-04-25T06:28:20;7.90;68.90
48551;DHT22;34397;51.176;6.738;2023-04-25T06:30:53;8.00;68.80
48551;DHT22;34397;51.176;6.738;2023-04-25T06:33:25;8.00;68.30
48551;DHT22;34397;51.176;6.738;2023-04-25T06:35:57;8.00;67.30
48551;DHT22;34397;51.176;6.738;2023-04-25T06:38:29;8.10;67.90
48551;DHT22;34397;51.176;6.738;2023-04-25T06:41:01;8.10;68.00
48551;DHT22;34397;51.176;6.738;2023-04-25T06:43:35;8.20;67.40
48551;DHT22;34397;51.176;6.738;2023-04-25T06:46:07;8.20;67.60
48551;DHT22;34397;51.176;6.738;2023-04-25T06:48:46;8.30;67.00
48551;DHT22;34397;51.176;6.738;2023-04-25T06:51:18;8.30;66.50
48551;DHT22;34397;51.176;6.738;2023-04-25T06:53:50;8.40;66.20
48551;DHT22;34397;51.176;6.738;2023-04-25T06:56:31;8.40;66.00
48551;DHT22;34397;51.176;6.738;2023-04-25T06:59:04;8.50;65.80
48551;DHT22;34397;51.176;6.738;2023-04-25T07:01:36;8.50;65.30
48551;DHT22;34397;51.176;6.738;2023-04-25T07:04:13;8.50;65.90
48551;DHT22;34397;51.176;6.738;2023-04-25T07:06:45;8.60;64.80
48551;DHT22;34397;51.176;6.738;2023-04-25T07:09:18;8.50;64.00
48551;DHT22;34397;51.176;6.738;2023-04-25T07:11:50;8.50;64.70
48551;DHT22;34397;51.176;6.738;2023-04-25T07:14:23;8.70;64.60
48551;DHT22;34397;51.176;6.738;2023-04-25T07:16:55;8.70;64.10
48551;DHT22;34397;51.176;6.738;2023-04-25T07:19:28;8.80;63.30
48551;DHT22;34397;51.176;6.738;2023-04-25T07:22:00;8.90;64.00
48551;DHT22;34397;51.176;6.738;2023-04-25T07:24:32;8.90;63.90
48551;DHT22;34397;51.176;6.738;2023-04-25T07:27:04;9.00;63.80
48551;DHT22;34397;51.176;6.738;2023-04-25T07:29:38;9.00;63.40
48551;DHT22;34397;51.176;6.738;2023-04-25T07:32:10;9.10;62.70
48551;DHT22;34397;51.176;6.738;2023-04-25T07:34:44;9.10;62.20
48551;DHT22;34397;51.176;6.738;2023-04-25T07:37:15;9.10;62.40
48551;DHT22;34397;51.176;6.738;2023-04-25T07:39:49;9.20;62.40
48551;DHT22;34397;51.176;6.738;2023-04-25T07:42:21;9.30;62.40
48551;DHT22;34397;51.176;6.738;2023-04-25T07:44:54;9.30;61.80
48551;DHT22;34397;51.176;6.738;2023-04-25T07:47:26;9.30;60.50
48551;DHT22;34397;51.176;6.738;2023-04-25T07:49:58;9.30;60.50
48551;DHT22;34397;51.176;6.738;2023-04-25T07:52:30;9.30;61.10
48551;DHT22;34397;51.176;6.738;2023-04-25T07:55:04;9.30;61.70
48551;DHT22;34397;51.176;6.738;2023-04-25T07:57:36;9.30;60.80
48551;DHT22;34397;51.176;6.738;2023-04-25T08:00:11;9.20;60.50
48551;DHT22;34397;51.176;6.738;2023-04-25T08:02:45;9.20;58.80
48551;DHT22;34397;51.176;6.738;2023-04-25T08:05:17;9.20;59.40
48551;DHT22;34397;51.176;6.738;2023-04-25T08:07:49;9.20;59.50
48551;DHT22;34397;51.176;6.738;2023-04-25T08:10:22;9.20;59.60
48551;DHT22;34397;51.176;6.738;2023-04-25T08:12:54;9.10;59.30
48551;DHT22;34397;51.176;6.738;2023-04-25T08:15:27;9.10;60.00
48551;DHT22;34397;51.176;6.738;2023-04-25T08:17:59;9.10;59.20
48551;DHT22;34397;51.176;6.738;2023-04-25T08:20:30;9.10;60.30
48551;DHT22;34397;51.176;6.738;2023-04-25T08:23:06;9.10;58.80
48551;DHT22;34397;51.176;6.738;2023-04-25T08:25:42;9.10;59.20
48551;DHT22;34397;51.176;6.738;2023-04-25T08:28:14;9.10;58.00
48551;DHT22;34397;51.176;6.738;2023-04-25T08:30:48;9.10;58.50
48551;DHT22;34397;51.176;6.738;2023-04-25T08:33:20;9.10;58.20
48551;DHT22;34397;51.176;6.738;2023-04-25T08:35:52;9.10;58.80
48551;DHT22;34397;51.176;6.738;2023-04-25T08:38:24;9.20;58.80
48551;DHT22;34397;51.176;6.738;2023-04-25T08:40:57;9.20;58.50
48551;DHT22;34397;51.176;6.738;2023-04-25T08:43:31;9.30;56.70
48551;DHT22;34397;51.176;6.738;2023-04-25T08:46:05;9.40;57.00
48551;DHT22;34397;51.176;6.738;2023-04-25T08:48:40;9.50;57.60
48551;DHT22;34397;51.176;6.738;2023-04-25T08:51:17;9.60;57.30
48551;DHT22;34397;51.176;6.738;2023-04-25T08:53:53;9.70;57.00
48551;DHT22;34397;51.176;6.738;2023-04-25T08:56:26;9.70;55.60
48551;DHT22;34397;51.176;6.738;2023-04-25T08:58:58;9.80;55.80
48551;DHT22;34397;51.176;6.738;2023-04-25T09:01:32;9.80;55.40
48551;DHT22;34397;51.176;6.738;2023-04-25T09:04:07;9.90;55.10
48551;DHT22;34397;51.176;6.738;2023-04-25T09:06:39;10.00;55.90
48551;DHT22;34397;51.176;6.738;2023-04-25T09:09:12;10.10;55.00
48551;DHT22;34397;51.176;6.738;2023-04-25T09:11:44;10.10;54.60
48551;DHT22;34397;51.176;6.738;2023-04-25T09:14:20;10.20;54.50
48551;DHT22;34397;51.176;6.738;2023-04-25T09:17:02;10.30;54.50
48551;DHT22;34397;51.176;6.738;2023-04-25T09:19:36;10.30;53.60
48551;DHT22;34397;51.176;6.738;2023-04-25T09:22:10;10.40;54.30
48551;DHT22;34397;51.176;6.738;2023-04-25T09:24:43;10.40;54.50
48551;DHT22;34397;51.176;6.738;2023-04-25T09:27:19;10.50;54.50
48551;DHT22;34397;51.176;6.738;2023-04-25T09:29:57;10.50;53.70
48551;DHT22;34397;51.176;6.738;2023-04-25T09:32:32;10.50;51.40
48551;DHT22;34397;51.176;6.738;2023-04-25T09:35:05;10.60;52.70
48551;DHT22;34397;51.176;6.738;2023-04-25T09:37:40;10.60;53.90
48551;DHT22;34397;51.176;6.738;2023-04-25T09:40:12;10.70;54.10
48551;DHT22;34397;51.176;6.738;2023-04-25T09:42:44;10.70;54.00
48551;DHT22;34397;51.176;6.738;2023-04-25T09:45:16;10.90;54.50
48551;DHT22;34397;51.176;6.738;2023-04-25T09:47:49;11.00;53.90
48551;DHT22;34397;51.176;6.738;2023-04-25T09:50:21;11.10;52.20
48551;DHT22;34397;51.176;6.738;2023-04-25T09:53:03;11.30;51.10
48551;DHT22;34397;51.176;6.738;2023-04-25T09:55:36;11.30;50.50
48551;DHT22;34397;51.176;6.738;2023-04-25T09:58:09;11.40;50.40
48551;DHT22;34397;51.176;6.738;2023-04-25T10:00:41;11.40;51.40
48551;DHT22;34397;51.176;6.738;2023-04-25T10:03:15;11.30;50.70
48551;DHT22;34397;51.176;6.738;2023-04-25T10:05:49;11.30;50.00
48551;DHT22;34397;51.176;6.738;2023-04-25T10:08:22;11.30;50.60
48551;DHT22;34397;51.176;6.738;2023-04-25T10:10:57;11.20;47.10
48551;DHT22;34397;51.176;6.738;2023-04-25T10:13:31;11.20;49.80
48551;DHT22;34397;51.176;6.738;2023-04-25T10:16:04;11.20;49.60
48551;DHT22;34397;51.176;6.738;2023-04-25T10:18:38;11.20;49.00
48551;DHT22;34397;51.176;6.738;2023-04-25T10:21:10;11.30;49.20
48551;DHT22;34397;51.176;6.738;2023-04-25T10:23:43;11.30;48.90
48551;DHT22;34397;51.176;6.738;2023-04-25T10:26:16;11.40;49.70
48551;DHT22;34397;51.176;6.738;2023-04-25T10:28:58;11.40;49.60
48551;DHT22;34397;51.176;6.738;2023-04-25T10:31:45;11.40;49.50
48551;DHT22;34397;51.176;6.738;2023-04-25T10:34:24;11.50;48.60
48551;DHT22;34397;51.176;6.738;2023-04-25T10:36:57;11.50;49.30
48551;DHT22;34397;51.176;6.738;2023-04-25T10:39:33;11.60;49.70
48551;DHT22;34397;51.176;6.738;2023-04-25T10:42:05;11.60;48.80
48551;DHT22;34397;51.176;6.738;2023-04-25T10:44:38;11.60;49.00
48551;DHT22;34397;51.176;6.738;2023-04-25T10:47:10;11.60;49.30
48551;DHT22;34397;51.176;6.738;2023-04-25T10:49:43;11.70;48.60
48551;DHT22;34397;51.176;6.738;2023-04-25T10:52:17;11.70;45.70
48551;DHT22;34397;51.176;6.738;2023-04-25T10:54:52;11.90;48.00
48551;DHT22;34397;51.176;6.738;2023-04-25T10:57:31;12.20;48.10
48551;DHT22;34397;51.176;6.738;2023-04-25T11:00:13;12.40;46.60
48551;DHT22;34397;51.176;6.738;2023-04-25T11:02:48;12.70;44.80
48551;DHT22;34397;51.176;6.738;2023-04-25T11:05:31;12.80;45.00
48551;DHT22;34397;51.176;6.738;2023-04-25T11:08:11;13.00;44.50
48551;DHT22;34397;51.176;6.738;2023-04-25T11:10:44;13.30;43.90
48551;DHT22;34397;51.176;6.738;2023-04-25T11:13:20;13.70;45.30
48551;DHT22;34397;51.176;6.738;2023-04-25T11:15:57;14.20;42.60
48551;DHT22;34397;51.176;6.738;2023-04-25T11:18:28;14.70;41.90
48551;DHT22;34397;51.176;6.738;2023-04-25T11:21:02;15.10;42.60
48551;DHT22;34397;51.176;6.738;2023-04-25T11:23:34;15.60;39.90
48551;DHT22;34397;51.176;6.738;2023-04-25T11:26:06;16.00;39.60
48551;DHT22;34397;51.176;6.738;2023-04-25T11:28:39;16.30;40.60
48551;DHT22;34397;51.176;6.738;2023-04-25T11:31:11;16.40;37.50
48551;DHT22;34397;51.176;6.738;2023-04-25T11:33:42;16.50;38.60
48551;DHT22;34397;51.176;6.738;2023-04-25T11:36:17;16.60;38.60
48551;DHT22;34397;51.176;6.738;2023-04-25T11:38:50;16.60;38.80
48551;DHT22;34397;51.176;6.738;2023-04-25T11:41:22;16.60;39.20
48551;DHT22;34397;51.176;6.738;2023-04-25T11:43:54;16.50;36.70
48551;DHT22;34397;51.176;6.738;2023-04-25T11:46:26;16.40;37.20
48551;DHT22;34397;51.176;6.738;2023-04-25T11:48:58;16.30;37.50
48551;DHT22;34397;51.176;6.738;2023-04-25T11:51:38;16.20;37.80
48551;DHT22;34397;51.176;6.738;2023-04-25T11:54:12;15.90;37.40
48551;DHT22;34397;51.176;6.738;2023-04-25T11:56:45;15.70;38.30
48551;DHT22;34397;51.176;6.738;2023-04-25T11:59:24;15.40;39.60
48551;DHT22;34397;51.176;6.738;2023-04-25T12:01:59;15.20;38.90
48551;DHT22;34397;51.176;6.738;2023-04-25T12:04:33;15.00;40.00
48551;DHT22;34397;51.176;6.738;2023-04-25T12:07:10;14.70;40.40
48551;DHT22;34397;51.176;6.738;2023-04-25T12:09:43;14.50;38.90
48551;DHT22;34397;51.176;6.738;2023-04-25T12:12:27;14.20;40.10
48551;DHT22;34397;51.176;6.738;2023-04-25T12:15:09;13.90;38.10
48551;DHT22;34397;51.176;6.738;2023-04-25T12:17:44;13.50;39.20
48551;DHT22;34397;51.176;6.738;2023-04-25T12:20:19;13.30;42.50
48551;DHT22;34397;51.176;6.738;2023-04-25T12:22:57;13.10;43.10
48551;DHT22;34397;51.176;6.738;2023-04-25T12:25:35;12.80;43.40
48551;DHT22;34397;51.176;6.738;2023-04-25T12:28:13;12.60;43.90
48551;DHT22;34397;51.176;6.738;2023-04-25T12:30:56;12.40;44.80
48551;DHT22;34397;51.176;6.738;2023-04-25T12:33:31;12.20;44.50
48551;DHT22;34397;51.176;6.738;2023-04-25T12:36:05;12.10;46.00
48551;DHT22;34397;51.176;6.738;2023-04-25T12:38:41;12.10;46.10
48551;DHT22;34397;51.176;6.738;2023-04-25T12:41:13;12.00;45.40
48551;DHT22;34397;51.176;6.738;2023-04-25T12:43:45;12.00;46.30
48551;DHT22;34397;51.176;6.738;2023-04-25T12:46:17;12.10;44.00
48551;DHT22;34397;51.176;6.738;2023-04-25T12:48:49;12.10;47.60
48551;DHT22;34397;51.176;6.738;2023-04-25T12:51:21;12.40;50.50
48551;DHT22;34397;51.176;6.738;2023-04-25T12:53:56;12.90;51.20
48551;DHT22;34397;51.176;6.738;2023-04-25T12:56:28;13.60;50.90
48551;DHT22;34397;51.176;6.738;2023-04-25T12:59:00;14.20;49.60
48551;DHT22;34397;51.176;6.738;2023-04-25T13:01:33;14.80;47.80
48551;DHT22;34397;51.176;6.738;2023-04-25T13:04:05;15.30;47.00
48551;DHT22;34397;51.176;6.738;2023-04-25T13:06:36;15.70;47.20
48551;DHT22;34397;51.176;6.738;2023-04-25T13:09:10;16.20;43.90
48551;DHT22;34397;51.176;6.738;2023-04-25T13:11:42;16.50;43.50
48551;DHT22;34397;51.176;6.738;2023-04-25T13:14:14;16.90;43.20
48551;DHT22;34397;51.176;6.738;2023-04-25T13:16:46;17.20;41.90
48551;DHT22;34397;51.176;6.738;2023-04-25T13:19:18;17.40;40.50
48551;DHT22;34397;51.176;6.738;2023-04-25T13:21:50;17.50;38.50
48551;DHT22;34397;51.176;6.738;2023-04-25T13:24:24;17.40;38.60
48551;DHT22;34397;51.176;6.738;2023-04-25T13:26:56;17.20;38.70
48551;DHT22;34397;51.176;6.738;2023-04-25T13:29:28;17.00;38.00
48551;DHT22;34397;51.176;6.738;2023-04-25T13:32:00;16.70;38.30
48551;DHT22;34397;51.176;6.738;2023-04-25T13:34:32;16.40;38.80
48551;DHT22;34397;51.176;6.738;2023-04-25T13:37:04;16.10;38.00
48551;DHT22;34397;51.176;6.738;2023-04-25T13:39:38;15.90;37.70
48551;DHT22;34397;51.176;6.738;2023-04-25T13:42:09;15.60;36.50
48551;DHT22;34397;51.176;6.738;2023-04-25T13:44:42;15.40;37.10
48551;DHT22;34397;51.176;6.738;2023-04-25T13:47:14;15.10;36.60
48551;DHT22;34397;51.176;6.738;2023-04-25T13:49:45;14.90;36.50
48551;DHT22;34397;51.176;6.738;2023-04-25T13:52:17;14.70;37.30
48551;DHT22;34397;51.176;6.738;2023-04-25T13:54:51;14.60;37.10
48551;DHT22;34397;51.176;6.738;2023-04-25T13:57:23;14.30;37.90
48551;DHT22;34397;51.176;6.738;2023-04-25T13:59:55;14.20;39.20
48551;DHT22;34397;51.176;6.738;2023-04-25T14:02:27;14.10;39.60
48551;DHT22;34397;51.176;6.738;2023-04-25T14:04:59;13.90;40.80
48551;DHT22;34397;51.176;6.738;2023-04-25T14:07:31;13.80;39.60
48551;DHT22;34397;51.176;6.738;2023-04-25T14:10:05;13.80;41.20
48551;DHT22;34397;51.176;6.738;2023-04-25T14:12:37;13.80;40.80
48551;DHT22;34397;51.176;6.738;2023-04-25T14:15:10;13.90;41.90
48551;DHT22;34397;51.176;6.738;2023-04-25T14:17:42;14.10;41.60
48551;DHT22;34397;51.176;6.738;2023-04-25T14:20:16;14.30;40.60
48551;DHT22;34397;51.176;6.738;2023-04-25T14:22:50;14.50;40.10
48551;DHT22;34397;51.176;6.738;2023-04-25T14:25:25;14.60;40.40
48551;DHT22;34397;51.176;6.738;2023-04-25T14:27:57;14.60;38.30
48551;DHT22;34397;51.176;6.738;2023-04-25T14:30:29;14.50;39.00
48551;DHT22;34397;51.176;6.738;2023-04-25T14:33:01;14.60;39.20
48551;DHT22;34397;51.176;6.738;2023-04-25T14:35:33;14.60;38.80
48551;DHT22;34397;51.176;6.738;2023-04-25T14:38:05;14.70;39.60
48551;DHT22;34397;51.176;6.738;2023-04-25T14:40:39;14.80;38.80
48551;DHT22;34397;51.176;6.738;2023-04-25T14:43:11;14.90;41.10
48551;DHT22;34397;51.176;6.738;2023-04-25T14:45:43;15.10;42.20
48551;DHT22;34397;51.176;6.738;2023-04-25T14:48:15;15.30;42.30
48551;DHT22;34397;51.176;6.738;2023-04-25T14:50:49;15.40;41.30
48551;DHT22;34397;51.176;6.738;2023-04-25T14:53:20;15.50;41.50
48551;DHT22;34397;51.176;6.738;2023-04-25T14:55:53;15.70;41.50
48551;DHT22;34397;51.176;6.738;2023-04-25T14:58:25;15.90;41.10
48551;DHT22;34397;51.176;6.738;2023-04-25T15:00:57;15.90;39.50
48551;DHT22;34397;51.176;6.738;2023-04-25T15:03:30;15.90;39.50
48551;DHT22;34397;51.176;6.738;2023-04-25T15:06:02;15.90;38.10
48551;DHT22;34397;51.176;6.738;2023-04-25T15:08:34;15.80;38.70
48551;DHT22;34397;51.176;6.738;2023-04-25T15:11:07;15.60;38.60
48551;DHT22;34397;51.176;6.738;2023-04-25T15:13:41;15.40;38.40
48551;DHT22;34397;51.176;6.738;2023-04-25T15:16:13;15.20;38.20
48551;DHT22;34397;51.176;6.738;2023-04-25T15:18:45;15.00;39.40
48551;DHT22;34397;51.176;6.738;2023-04-25T15:21:16;14.70;38.60
48551;DHT22;34397;51.176;6.738;2023-04-25T15:23:48;14.50;39.10
48551;DHT22;34397;51.176;6.738;2023-04-25T15:26:21;14.30;40.50
48551;DHT22;34397;51.176;6.738;2023-04-25T15:28:53;14.10;40.70
48551;DHT22;34397;51.176;6.738;2023-04-25T15:31:25;14.00;41.00
48551;DHT22;34397;51.176;6.738;2023-04-25T15:33:57;13.90;41.70
48551;DHT22;34397;51.176;6.738;2023-04-25T15:36:29;13.90;41.00
48551;DHT22;34397;51.176;6.738;2023-04-25T15:39:01;13.70;39.30
48551;DHT22;34397;51.176;6.738;2023-04-25T15:41:36;13.70;39.30
48551;DHT22;34397;51.176;6.738;2023-04-25T15:44:08;13.60;40.50
48551;DHT22;34397;51.176;6.738;2023-04-25T15:46:40;13.60;41.30
48551;DHT22;34397;51.176;6.738;2023-04-25T15:49:13;13.60;41.50
48551;DHT22;34397;51.176;6.738;2023-04-25T15:51:45;13.70;42.80
48551;DHT22;34397;51.176;6.738;2023-04-25T15:54:17;13.80;43.80
48551;DHT22;34397;51.176;6.738;2023-04-25T15:56:50;13.90;42.60
48551;DHT22;34397;51.176;6.738;2023-04-25T15:59:22;14.10;41.50
48551;DHT22;34397;51.176;6.738;2023-04-25T16:01:54;14.10;41.50
48551;DHT22;34397;51.176;6.738;2023-04-25T16:04:26;14.10;41.10
48551;DHT22;34397;51.176;6.738;2023-04-25T16:07:04;14.10;41.30
48551;DHT22;34397;51.176;6.738;2023-04-25T16:09:37;14.10;41.10
48551;DHT22;34397;51.176;6.738;2023-04-25T16:12:10;14.20;41.20
48551;DHT22;34397;51.176;6.738;2023-04-25T16:14:42;14.20;41.00
48551;DHT22;34397;51.176;6.738;2023-04-25T16:17:14;14.20;40.10